Bunker, Washington
Current Conditions -  °F | °C
As of 7:35 PM on Friday 24 Oct 2014 (Local Time) from KCLS Reporting Station
Moderate Rain Moderate Rain  
Wind Chill: 11°   Ceiling: 4800
Heat Index: 11°   Visibility: 8mi
Dew Point: 11°   Wind: 5mph
Humidity: 100%   Direction: 10°N
Pressure: 29.81"   Gusts: NA
Location:  46.6561°N, 122.993°W
Report Text: KCLS 250235Z AUTO 01004KT 8SM RA OVC048 11/11 A2981 RMK AO2
Loading
Personal Weather Stations






























Interactive Weather Map
Tropical Storm Tracking
New forecast layout! Learn more

10-Day Weather Forecast

Advertisements
Track Severe Weather on mobile